Time;durP1;ratioP1;P1;durP2;ratioP2;P2;SDS_P1;SDS_P2;PMS_P1;PMS_P2;Temp;Humidity;BMP_temperature;BMP_pressure;BME280_temperature;BME280_humidity;BME280_pressure;Samples;Min_cycle;Max_cycle;Signal;HPM_P1;HPM_P2
2021/10/04 00:04:30;;;;;;;6.53;3.37;;;;;;;;;;10532616;28;20419;-80
2021/10/04 00:09:30;;;;;;;8.93;4.10;;;;;;;;;;10531890;28;20469;-79
2021/10/04 00:14:31;;;;;;;5.88;3.45;;;;;;;;;;10531977;28;20466;-79
2021/10/04 00:19:31;;;;;;;8.65;3.78;;;;;;;;;;10531239;28;20024;-79
2021/10/04 00:24:32;;;;;;;6.40;2.93;;;;;;;;;;10510817;28;20103;-79
2021/10/04 00:29:32;;;;;;;8.15;3.60;;;;;;;;;;10503509;28;20536;-79
2021/10/04 00:34:33;;;;;;;6.82;3.17;;;;;;;;;;10502774;28;20137;-79
2021/10/04 00:39:35;;;;;;;5.17;3.73;;;;;;;;;;10503193;28;20032;-79
2021/10/04 00:44:35;;;;;;;7.95;3.85;;;;;;;;;;10503173;28;20129;-79
2021/10/04 00:49:35;;;;;;;4.70;3.07;;;;;;;;;;10502267;28;20101;-80
2021/10/04 00:54:36;;;;;;;8.60;3.47;;;;;;;;;;10502634;28;20020;-80
2021/10/04 00:59:37;;;;;;;8.10;3.40;;;;;;;;;;10502712;28;20430;-80
2021/10/04 01:04:37;;;;;;;7.43;3.13;;;;;;;;;;10502360;28;20112;-80
2021/10/04 01:09:38;;;;;;;5.60;3.60;;;;;;;;;;10499742;28;20029;-79
2021/10/04 01:14:38;;;;;;;5.75;3.20;;;;;;;;;;10497602;28;20036;-79
2021/10/04 01:19:39;;;;;;;4.33;3.03;;;;;;;;;;10501483;28;20029;-80
2021/10/04 01:24:40;;;;;;;4.93;3.60;;;;;;;;;;10501493;28;20032;-80
2021/10/04 01:29:40;;;;;;;4.37;3.33;;;;;;;;;;10491096;28;20029;-80
2021/10/04 01:34:41;;;;;;;5.40;3.50;;;;;;;;;;10495657;28;20517;-80
2021/10/04 01:39:41;;;;;;;8.73;3.43;;;;;;;;;;10500300;28;20473;-80
2021/10/04 01:44:41;;;;;;;4.40;3.47;;;;;;;;;;10499950;28;20551;-80
2021/10/04 01:49:43;;;;;;;4.27;3.53;;;;;;;;;;10494315;28;20033;-80
2021/10/04 01:54:44;;;;;;;5.25;3.17;;;;;;;;;;10492679;28;20771;-81
2021/10/04 01:59:44;;;;;;;10.75;2.95;;;;;;;;;;10499375;28;20043;-81
2021/10/04 02:04:45;;;;;;;5.80;2.70;;;;;;;;;;10499883;28;20039;-81
2021/10/04 02:09:47;;;;;;;4.82;3.10;;;;;;;;;;10499183;28;20052;-80
2021/10/04 02:14:47;;;;;;;3.22;2.88;;;;;;;;;;10499316;28;20058;-81
2021/10/04 02:19:48;;;;;;;4.30;3.22;;;;;;;;;;10499301;28;20355;-81
2021/10/04 02:24:48;;;;;;;4.07;3.50;;;;;;;;;;10499094;28;20094;-82
2021/10/04 02:29:49;;;;;;;4.53;3.43;;;;;;;;;;10498583;28;20466;-80
2021/10/04 02:34:49;;;;;;;4.37;3.53;;;;;;;;;;10498986;28;20489;-81
2021/10/04 02:39:49;;;;;;;5.35;3.28;;;;;;;;;;10498574;28;20488;-80
2021/10/04 02:44:50;;;;;;;3.30;3.00;;;;;;;;;;10497689;28;20037;-80
2021/10/04 02:49:50;;;;;;;4.82;3.35;;;;;;;;;;10497581;28;20040;-80
2021/10/04 02:54:51;;;;;;;14.53;3.27;;;;;;;;;;10497793;28;20107;-80
2021/10/04 02:59:51;;;;;;;3.90;3.28;;;;;;;;;;10498050;28;20434;-80
2021/10/04 03:04:52;;;;;;;6.40;2.83;;;;;;;;;;10497687;28;20432;-79
2021/10/04 03:09:52;;;;;;;3.20;2.88;;;;;;;;;;10497303;28;20530;-80
2021/10/04 03:14:54;;;;;;;4.35;3.03;;;;;;;;;;10497843;28;20025;-80
2021/10/04 03:19:54;;;;;;;5.45;3.17;;;;;;;;;;10498078;28;20110;-81
2021/10/04 03:24:54;;;;;;;5.50;3.20;;;;;;;;;;10497288;28;20579;-80
2021/10/04 03:29:55;;;;;;;3.40;2.70;;;;;;;;;;10496947;28;20032;-81
2021/10/04 03:34:55;;;;;;;3.40;3.10;;;;;;;;;;10483502;28;20086;-81
2021/10/04 03:39:56;;;;;;;4.23;2.97;;;;;;;;;;10483046;28;20974;-81
2021/10/04 03:44:56;;;;;;;8.13;3.20;;;;;;;;;;10483137;28;20437;-81
2021/10/04 03:49:56;;;;;;;3.87;3.00;;;;;;;;;;10497167;28;20446;-81
2021/10/04 03:54:57;;;;;;;3.65;2.47;;;;;;;;;;10497328;28;20074;-80
2021/10/04 03:59:57;;;;;;;4.23;3.13;;;;;;;;;;10502091;28;20119;-80
2021/10/04 04:04:58;;;;;;;3.88;2.80;;;;;;;;;;10504064;28;20448;-81
2021/10/04 04:09:58;;;;;;;5.57;2.50;;;;;;;;;;10504360;28;20101;-81
2021/10/04 04:14:59;;;;;;;4.70;2.80;;;;;;;;;;10504508;28;20031;-81
2021/10/04 04:19:59;;;;;;;4.23;2.80;;;;;;;;;;10503988;28;20460;-80
2021/10/04 04:24:59;;;;;;;3.00;2.70;;;;;;;;;;10503151;28;20971;-80
2021/10/04 04:30:01;;;;;;;3.13;2.60;;;;;;;;;;10503838;28;20457;-80
2021/10/04 04:35:05;;;;;;;3.10;2.67;;;;;;;;;;10503485;28;20787;-81
2021/10/04 04:40:09;;;;;;;3.33;2.72;;;;;;;;;;10488902;28;20040;-81
2021/10/04 04:45:13;;;;;;;3.00;2.55;;;;;;;;;;10489443;28;20032;-81
2021/10/04 04:50:14;;;;;;;2.92;2.63;;;;;;;;;;10503060;28;20143;-81
2021/10/04 04:55:15;;;;;;;3.13;2.65;;;;;;;;;;10503378;28;20463;-81
2021/10/04 05:00:18;;;;;;;3.33;3.03;;;;;;;;;;10502330;28;20032;-79
2021/10/04 05:05:19;;;;;;;3.55;3.10;;;;;;;;;;10502173;28;20021;-79
2021/10/04 05:10:19;;;;;;;2.80;2.60;;;;;;;;;;10501237;28;20040;-80
2021/10/04 05:15:20;;;;;;;4.10;2.83;;;;;;;;;;10501705;28;20521;-80
2021/10/04 05:20:20;;;;;;;3.65;2.60;;;;;;;;;;10501648;28;20545;-82
2021/10/04 05:25:20;;;;;;;3.13;2.50;;;;;;;;;;10501247;28;20031;-82
2021/10/04 05:30:21;;;;;;;2.80;2.60;;;;;;;;;;10500939;28;20093;-83
2021/10/04 05:35:21;;;;;;;4.22;2.97;;;;;;;;;;10500753;28;20442;-80
2021/10/04 05:40:22;;;;;;;6.53;3.37;;;;;;;;;;10500488;28;20111;-81
2021/10/04 05:45:23;;;;;;;7.60;4.20;;;;;;;;;;10500097;28;20021;-82
2021/10/04 05:50:25;;;;;;;9.93;3.83;;;;;;;;;;10499774;28;20382;-82
2021/10/04 05:55:25;;;;;;;6.38;3.35;;;;;;;;;;10500395;28;20052;-83
2021/10/04 06:00:26;;;;;;;4.03;2.85;;;;;;;;;;10499228;28;20079;-82
2021/10/04 06:05:26;;;;;;;14.82;4.43;;;;;;;;;;10499727;28;20454;-80
2021/10/04 06:10:27;;;;;;;10.83;4.23;;;;;;;;;;10496069;28;20051;-81
2021/10/04 06:15:28;;;;;;;12.98;3.83;;;;;;;;;;10498948;28;20453;-82
2021/10/04 06:20:28;;;;;;;9.27;4.07;;;;;;;;;;10497611;28;20035;-82
2021/10/04 06:25:29;;;;;;;12.18;4.15;;;;;;;;;;10497531;28;20115;-84
2021/10/04 06:30:29;;;;;;;18.83;4.47;;;;;;;;;;10498214;28;20029;-83
2021/10/04 06:35:30;;;;;;;19.88;4.32;;;;;;;;;;10498561;28;20509;-84
2021/10/04 06:40:31;;;;;;;19.27;4.50;;;;;;;;;;10498485;28;20466;-84
2021/10/04 06:45:31;;;;;;;8.80;4.40;;;;;;;;;;10498275;28;20032;-84
2021/10/04 06:50:32;;;;;;;12.18;3.80;;;;;;;;;;10498169;28;20024;-85
2021/10/04 06:55:32;;;;;;;9.15;3.70;;;;;;;;;;10498191;28;20481;-84
2021/10/04 07:00:33;;;;;;;10.90;4.25;;;;;;;;;;10497963;28;20058;-85
2021/10/04 07:05:33;;;;;;;11.82;4.10;;;;;;;;;;10497724;28;20051;-84
2021/10/04 07:10:34;;;;;;;14.83;3.83;;;;;;;;;;10497496;28;20045;-84
2021/10/04 07:15:34;;;;;;;9.57;4.30;;;;;;;;;;10497496;28;20966;-84
2021/10/04 07:20:34;;;;;;;8.23;4.43;;;;;;;;;;10482953;28;20036;-84
2021/10/04 07:25:35;;;;;;;12.07;4.70;;;;;;;;;;10497956;28;20151;-83
2021/10/04 07:30:36;;;;;;;8.63;4.00;;;;;;;;;;10496921;28;20485;-83
2021/10/04 07:35:36;;;;;;;5.82;3.65;;;;;;;;;;10504615;28;20028;-82
2021/10/04 07:40:37;;;;;;;10.20;3.70;;;;;;;;;;10504920;28;20032;-82
2021/10/04 07:45:37;;;;;;;11.68;4.15;;;;;;;;;;10421013;22;20674;-82
2021/10/04 07:50:38;;;;;;;10.85;4.40;;;;;;;;;;10380840;28;20038;-81
2021/10/04 07:55:39;;;;;;;9.97;3.93;;;;;;;;;;10381057;28;20468;-81
2021/10/04 08:00:40;;;;;;;8.93;4.45;;;;;;;;;;10363356;28;20471;-84
2021/10/04 08:05:40;;;;;;;10.82;4.68;;;;;;;;;;10379884;28;20050;-84
2021/10/04 08:10:40;;;;;;;8.27;3.77;;;;;;;;;;10380396;28;20081;-84
2021/10/04 08:15:41;;;;;;;9.53;3.77;;;;;;;;;;10380436;28;20479;-84
2021/10/04 08:20:41;;;;;;;6.55;3.40;;;;;;;;;;10379606;28;20045;-84
2021/10/04 08:25:42;;;;;;;9.83;3.50;;;;;;;;;;10380643;28;20120;-85
2021/10/04 08:30:42;;;;;;;7.28;3.35;;;;;;;;;;10379575;28;20463;-84
2021/10/04 08:35:43;;;;;;;6.35;3.88;;;;;;;;;;10376896;28;20432;-87
2021/10/04 08:40:43;;;;;;;4.23;3.60;;;;;;;;;;10377713;28;20038;-86
2021/10/04 08:45:45;;;;;;;8.90;3.60;;;;;;;;;;10377326;28;20537;-86
2021/10/04 08:50:45;;;;;;;5.30;3.40;;;;;;;;;;10370053;28;20422;-87
2021/10/04 08:55:45;;;;;;;7.23;3.37;;;;;;;;;;10378032;28;20080;-87
2021/10/04 09:00:46;;;;;;;6.13;3.90;;;;;;;;;;10377905;28;20029;-86
2021/10/04 09:05:55;;;;;;;6.83;3.70;;;;;;;;;;10378082;28;20028;-86
2021/10/04 09:10:56;;;;;;;8.18;3.67;;;;;;;;;;10378501;28;20527;-87
2021/10/04 09:15:56;;;;;;;9.35;3.90;;;;;;;;;;10378199;28;20442;-87
2021/10/04 09:21:05;;;;;;;6.70;3.73;;;;;;;;;;10377658;28;20034;-86
2021/10/04 09:26:07;;;;;;;6.55;4.13;;;;;;;;;;10364186;28;20953;-87
2021/10/04 09:31:18;;;;;;;7.15;3.90;;;;;;;;;;10358617;28;20041;-87
2021/10/04 09:36:19;;;;;;;4.95;3.10;;;;;;;;;;10372854;28;20392;-87
2021/10/04 09:41:19;;;;;;;6.57;3.73;;;;;;;;;;10373247;28;20072;-86
2021/10/04 09:46:23;;;;;;;4.50;3.40;;;;;;;;;;10369238;28;20529;-86
2021/10/04 09:51:23;;;;;;;4.32;3.30;;;;;;;;;;10376067;28;20034;-86
2021/10/04 09:56:25;;;;;;;5.53;3.40;;;;;;;;;;10375787;28;20048;-86
2021/10/04 10:01:26;;;;;;;5.75;3.88;;;;;;;;;;10375224;28;20472;-86
2021/10/04 10:06:27;;;;;;;8.20;3.72;;;;;;;;;;10374807;28;20033;-86
2021/10/04 10:11:31;;;;;;;6.97;3.42;;;;;;;;;;10373966;28;20034;-86
2021/10/04 10:16:34;;;;;;;7.88;3.63;;;;;;;;;;10375462;28;20116;-86
2021/10/04 10:21:36;;;;;;;8.05;3.75;;;;;;;;;;10390654;28;20030;-86
2021/10/04 10:26:57;;;;;;;6.82;4.05;;;;;;;;;;10374661;28;20038;-82
2021/10/04 10:31:57;;;;;;;9.90;3.72;;;;;;;;;;10374967;28;20037;-85
2021/10/04 10:37:01;;;;;;;7.50;3.63;;;;;;;;;;10374858;28;20133;-85
2021/10/04 10:42:21;;;;;;;6.18;3.80;;;;;;;;;;10374291;28;20069;-85
2021/10/04 10:47:36;;;;;;;4.00;3.60;;;;;;;;;;10374789;28;20038;-85
2021/10/04 10:52:39;;;;;;;5.63;3.30;;;;;;;;;;10374751;28;20018;-85
2021/10/04 10:58:04;;;;;;;7.07;3.88;;;;;;;;;;10374064;28;20041;-85
2021/10/04 11:03:23;;;;;;;7.25;4.10;;;;;;;;;;10374805;28;20419;-85
2021/10/04 11:08:30;;;;;;;4.57;3.80;;;;;;;;;;10356150;28;20109;-85
2021/10/04 11:13:34;;;;;;;5.57;3.50;;;;;;;;;;10373961;28;20084;-85
2021/10/04 11:18:40;;;;;;;4.60;3.72;;;;;;;;;;10370357;28;20096;-85
2021/10/04 11:23:46;;;;;;;6.50;4.40;;;;;;;;;;10372750;28;20044;-86
2021/10/04 11:28:48;;;;;;;8.35;3.95;;;;;;;;;;10355671;28;20037;-84
2021/10/04 11:33:53;;;;;;;5.13;4.10;;;;;;;;;;10373329;28;20026;-83
2021/10/04 11:38:56;;;;;;;6.63;3.83;;;;;;;;;;10374374;28;20068;-82
2021/10/04 11:44:08;;;;;;;9.60;3.90;;;;;;;;;;10366266;28;20127;-82
2021/10/04 11:49:12;;;;;;;11.00;4.45;;;;;;;;;;10373936;28;20033;-82
2021/10/04 11:54:14;;;;;;;9.00;3.75;;;;;;;;;;10372508;28;20441;-82
2021/10/04 11:59:15;;;;;;;6.88;4.32;;;;;;;;;;10354851;28;20066;-82
2021/10/04 12:04:16;;;;;;;5.47;3.60;;;;;;;;;;10372498;28;20058;-82
2021/10/04 12:09:21;;;;;;;9.18;4.13;;;;;;;;;;10372528;28;20463;-83
2021/10/04 12:14:23;;;;;;;6.68;3.83;;;;;;;;;;10372306;28;20030;-82
2021/10/04 12:19:24;;;;;;;7.22;4.00;;;;;;;;;;10374437;28;20049;-82
2021/10/04 12:24:29;;;;;;;10.00;3.85;;;;;;;;;;10379004;28;20037;-83
2021/10/04 12:29:29;;;;;;;5.15;3.72;;;;;;;;;;10379056;28;20038;-82
2021/10/04 12:34:30;;;;;;;7.63;3.75;;;;;;;;;;10378225;28;20431;-82
2021/10/04 12:39:38;;;;;;;9.33;4.10;;;;;;;;;;10379636;28;20029;-83
2021/10/04 12:44:39;;;;;;;5.22;3.85;;;;;;;;;;10377722;28;20476;-84
2021/10/04 12:49:59;;;;;;;6.80;3.73;;;;;;;;;;10375297;28;20033;-85
2021/10/04 12:55:00;;;;;;;5.93;3.50;;;;;;;;;;10372912;28;20491;-83
2021/10/04 13:00:04;;;;;;;5.32;3.58;;;;;;;;;;10377386;28;20524;-83
2021/10/04 13:05:06;;;;;;;10.75;3.67;;;;;;;;;;10378577;28;20030;-82
2021/10/04 13:10:07;;;;;;;5.53;3.47;;;;;;;;;;10378290;28;20029;-84
2021/10/04 13:15:07;;;;;;;6.03;3.33;;;;;;;;;;10377102;28;20446;-82
2021/10/04 13:20:10;;;;;;;8.77;3.70;;;;;;;;;;10377163;28;20443;-82
2021/10/04 13:25:11;;;;;;;8.13;4.05;;;;;;;;;;10377525;28;20052;-82
2021/10/04 13:30:12;;;;;;;7.10;3.83;;;;;;;;;;10377139;28;20559;-82
2021/10/04 13:35:12;;;;;;;8.32;3.95;;;;;;;;;;10375512;28;20033;-82
2021/10/04 13:40:12;;;;;;;8.40;3.67;;;;;;;;;;10367779;28;20388;-81
2021/10/04 13:45:13;;;;;;;6.03;3.42;;;;;;;;;;10369087;28;20070;-82
2021/10/04 13:50:14;;;;;;;6.22;3.40;;;;;;;;;;10370710;28;20029;-82
2021/10/04 13:55:14;;;;;;;4.05;3.42;;;;;;;;;;10374537;28;20088;-82
2021/10/04 14:00:15;;;;;;;6.75;3.63;;;;;;;;;;10357440;28;20036;-82
2021/10/04 14:05:16;;;;;;;8.52;3.53;;;;;;;;;;10357146;28;20392;-82
2021/10/04 14:10:17;;;;;;;5.00;3.22;;;;;;;;;;10375432;28;20034;-82
2021/10/04 14:15:17;;;;;;;5.55;3.65;;;;;;;;;;10373693;28;20026;-81
2021/10/04 14:20:18;;;;;;;6.68;3.72;;;;;;;;;;10374266;28;20040;-82
2021/10/04 14:25:19;;;;;;;5.13;3.90;;;;;;;;;;10376116;28;20030;-82
2021/10/04 14:30:20;;;;;;;8.90;3.65;;;;;;;;;;10374548;28;20043;-82
2021/10/04 14:35:21;;;;;;;5.85;3.78;;;;;;;;;;10374248;28;20380;-82
2021/10/04 14:40:24;;;;;;;7.13;4.20;;;;;;;;;;10374518;28;20038;-82
2021/10/04 14:45:25;;;;;;;8.45;4.28;;;;;;;;;;10374606;28;20471;-83
2021/10/04 14:50:26;;;;;;;7.05;4.10;;;;;;;;;;10374109;28;20372;-82
2021/10/04 14:55:27;;;;;;;5.40;3.63;;;;;;;;;;10373889;28;20034;-83
2021/10/04 15:00:28;;;;;;;6.88;3.45;;;;;;;;;;10373841;28;20384;-82
2021/10/04 15:05:28;;;;;;;7.93;3.83;;;;;;;;;;10370669;28;20471;-82
2021/10/04 15:10:30;;;;;;;7.53;3.60;;;;;;;;;;10372098;28;20042;-82
2021/10/04 15:15:31;;;;;;;6.95;3.70;;;;;;;;;;10372022;28;20026;-81
2021/10/04 15:20:31;;;;;;;4.77;3.70;;;;;;;;;;10372744;28;20052;-82
2021/10/04 15:25:32;;;;;;;9.70;4.03;;;;;;;;;;10362534;28;20443;-82
2021/10/04 15:30:32;;;;;;;7.63;3.95;;;;;;;;;;10372548;28;20026;-81
2021/10/04 15:35:33;;;;;;;10.70;3.30;;;;;;;;;;10373083;28;20520;-83
2021/10/04 15:40:33;;;;;;;8.77;4.13;;;;;;;;;;10372146;28;20030;-84
2021/10/04 15:45:34;;;;;;;5.70;4.07;;;;;;;;;;10372734;28;20056;-82
2021/10/04 15:50:34;;;;;;;6.37;4.20;;;;;;;;;;10372069;28;20554;-84
2021/10/04 15:55:35;;;;;;;5.22;3.72;;;;;;;;;;10377941;28;20030;-83
2021/10/04 16:00:35;;;;;;;11.10;3.55;;;;;;;;;;10379832;28;20401;-82
2021/10/04 16:05:36;;;;;;;6.03;3.63;;;;;;;;;;10380069;28;20045;-83
2021/10/04 16:10:36;;;;;;;5.03;3.60;;;;;;;;;;10380086;28;20041;-83
2021/10/04 16:15:39;;;;;;;3.50;2.78;;;;;;;;;;10367712;28;20458;-83
2021/10/04 16:20:39;;;;;;;7.72;3.97;;;;;;;;;;10373524;28;20041;-83
2021/10/04 16:25:40;;;;;;;3.67;3.17;;;;;;;;;;10350698;28;20044;-84
2021/10/04 16:30:41;;;;;;;5.38;3.47;;;;;;;;;;10374139;28;20579;-83
2021/10/04 16:35:43;;;;;;;5.38;3.78;;;;;;;;;;10346359;28;20030;-83
2021/10/04 16:40:43;;;;;;;7.93;3.53;;;;;;;;;;10368691;28;20491;-84
2021/10/04 16:45:44;;;;;;;8.82;3.60;;;;;;;;;;10374343;28;20061;-84
2021/10/04 16:50:44;;;;;;;4.70;3.63;;;;;;;;;;10374164;28;20072;-84
2021/10/04 16:55:44;;;;;;;8.87;4.00;;;;;;;;;;10375522;28;20066;-83
2021/10/04 17:00:45;;;;;;;5.40;3.63;;;;;;;;;;10368151;28;20543;-83
2021/10/04 17:05:45;;;;;;;7.50;4.07;;;;;;;;;;10369072;28;21014;-83
2021/10/04 17:10:46;;;;;;;7.10;4.13;;;;;;;;;;10370711;28;20400;-83
2021/10/04 17:15:47;;;;;;;6.97;3.95;;;;;;;;;;10361030;28;20037;-85
2021/10/04 17:20:47;;;;;;;4.63;3.83;;;;;;;;;;10363115;28;20468;-85
2021/10/04 17:25:47;;;;;;;12.67;4.30;;;;;;;;;;10372550;28;20038;-81
2021/10/04 17:30:48;;;;;;;7.73;4.20;;;;;;;;;;10372960;28;20053;-81
2021/10/04 17:35:50;;;;;;;9.17;4.90;;;;;;;;;;10374989;28;20498;-79
2021/10/04 17:40:51;;;;;;;13.52;3.97;;;;;;;;;;10365553;28;20452;-85
2021/10/04 17:45:51;;;;;;;16.33;5.00;;;;;;;;;;10371893;28;20468;-85
2021/10/04 17:50:54;;;;;;;9.03;4.60;;;;;;;;;;10374976;28;20068;-85
2021/10/04 17:55:55;;;;;;;15.07;5.40;;;;;;;;;;10375688;28;20459;-83
2021/10/04 18:00:55;;;;;;;8.07;4.70;;;;;;;;;;10374233;28;20385;-85
2021/10/04 18:05:56;;;;;;;9.20;5.00;;;;;;;;;;10376579;28;20061;-85
2021/10/04 18:10:57;;;;;;;10.75;4.95;;;;;;;;;;10381989;28;20089;-84
2021/10/04 18:15:58;;;;;;;9.98;5.30;;;;;;;;;;10376648;28;20106;-84
2021/10/04 18:20:58;;;;;;;13.05;4.97;;;;;;;;;;10382293;28;20105;-84
2021/10/04 18:25:59;;;;;;;7.67;5.50;;;;;;;;;;10371627;28;20038;-83
2021/10/04 18:30:59;;;;;;;12.23;4.78;;;;;;;;;;10374226;28;20029;-82
2021/10/04 18:35:59;;;;;;;19.77;6.57;;;;;;;;;;10371069;28;20484;-83
2021/10/04 18:41:00;;;;;;;26.20;7.33;;;;;;;;;;10375223;28;20030;-83
2021/10/04 18:46:01;;;;;;;14.63;6.78;;;;;;;;;;10372633;28;20470;-83
2021/10/04 18:51:01;;;;;;;17.52;5.30;;;;;;;;;;10372944;28;20053;-83
2021/10/04 18:56:02;;;;;;;14.23;5.13;;;;;;;;;;10362724;28;20502;-82
2021/10/04 19:01:02;;;;;;;29.98;5.68;;;;;;;;;;10369473;28;20543;-84
2021/10/04 19:06:03;;;;;;;19.45;5.88;;;;;;;;;;10370137;28;20041;-84
2021/10/04 19:11:03;;;;;;;10.27;4.75;;;;;;;;;;10370533;28;20100;-83
2021/10/04 19:16:04;;;;;;;12.50;4.85;;;;;;;;;;10374370;28;20026;-83
2021/10/04 19:21:04;;;;;;;12.02;4.88;;;;;;;;;;10374305;28;20042;-83
2021/10/04 19:26:05;;;;;;;8.63;4.53;;;;;;;;;;10373693;28;20029;-83
2021/10/04 19:31:05;;;;;;;11.93;4.60;;;;;;;;;;10381509;28;20468;-86
2021/10/04 19:36:06;;;;;;;10.40;5.18;;;;;;;;;;10368286;28;20022;-87
2021/10/04 19:41:07;;;;;;;7.28;4.47;;;;;;;;;;10368592;28;20030;-85
2021/10/04 19:46:08;;;;;;;10.23;4.50;;;;;;;;;;10483841;23;20059;-86
2021/10/04 19:51:08;;;;;;;12.57;4.80;;;;;;;;;;10495987;28;20443;-86
2021/10/04 19:56:17;;;;;;;10.63;4.70;;;;;;;;;;10502132;28;20027;-85
2021/10/04 20:01:19;;;;;;;7.82;4.93;;;;;;;;;;10503152;28;20500;-85
2021/10/04 20:06:20;;;;;;;9.98;5.18;;;;;;;;;;10500970;28;20024;-86
2021/10/04 20:11:20;;;;;;;10.23;4.67;;;;;;;;;;10503150;28;20383;-86
2021/10/04 20:16:22;;;;;;;11.63;4.93;;;;;;;;;;10503216;28;20527;-86
2021/10/04 20:21:22;;;;;;;10.77;5.03;;;;;;;;;;10502559;28;20108;-86
2021/10/04 20:26:23;;;;;;;8.38;4.63;;;;;;;;;;10502707;28;20107;-86
2021/10/04 20:31:23;;;;;;;9.70;4.63;;;;;;;;;;10497202;28;20119;-86
2021/10/04 20:36:24;;;;;;;12.07;4.50;;;;;;;;;;10502466;28;20439;-85
2021/10/04 20:41:24;;;;;;;11.80;4.80;;;;;;;;;;10503532;28;20465;-85
2021/10/04 20:46:25;;;;;;;14.85;5.30;;;;;;;;;;10502997;28;20072;-87
2021/10/04 20:51:25;;;;;;;10.90;4.63;;;;;;;;;;10502448;28;20467;-84
2021/10/04 20:56:25;;;;;;;13.55;4.25;;;;;;;;;;10501590;28;20059;-81
2021/10/04 21:01:26;;;;;;;14.07;5.33;;;;;;;;;;10501470;28;20063;-84
2021/10/04 21:06:27;;;;;;;21.23;5.83;;;;;;;;;;10498133;28;20047;-84
2021/10/04 21:11:27;;;;;;;14.68;5.68;;;;;;;;;;10500843;28;20082;-82
2021/10/04 21:16:27;;;;;;;10.75;5.40;;;;;;;;;;10500936;28;20032;-82
2021/10/04 21:21:28;;;;;;;11.60;4.63;;;;;;;;;;10488506;28;20032;-82
2021/10/04 21:26:28;;;;;;;12.27;5.27;;;;;;;;;;10501185;28;20020;-82
2021/10/04 21:31:29;;;;;;;11.82;5.32;;;;;;;;;;10500114;28;20070;-82
2021/10/04 21:36:29;;;;;;;18.58;5.03;;;;;;;;;;10500019;28;20029;-81
2021/10/04 21:41:30;;;;;;;14.87;6.10;;;;;;;;;;10500303;28;20380;-85
2021/10/04 21:46:30;;;;;;;8.32;4.22;;;;;;;;;;10499651;28;20112;-83
2021/10/04 21:51:31;;;;;;;12.27;5.28;;;;;;;;;;10498902;28;20037;-81
2021/10/04 21:56:33;;;;;;;15.65;5.38;;;;;;;;;;10499273;28;20103;-81
2021/10/04 22:12:13;;;;;;;16.00;5.80;;;;;;;;;;10451423;28;20047;-82
2021/10/04 22:17:14;;;;;;;17.15;5.65;;;;;;;;;;10496292;28;20187;-81
2021/10/04 22:22:14;;;;;;;15.30;5.22;;;;;;;;;;10499771;28;20027;-80
2021/10/04 22:27:14;;;;;;;14.23;4.83;;;;;;;;;;10498683;28;20474;-81
2021/10/04 22:32:15;;;;;;;9.43;4.93;;;;;;;;;;10498105;28;20543;-82
2021/10/04 22:37:15;;;;;;;7.07;4.63;;;;;;;;;;10499055;28;20029;-81
2021/10/04 22:42:16;;;;;;;10.60;4.57;;;;;;;;;;10498066;28;20145;-81
2021/10/04 22:47:16;;;;;;;24.40;4.72;;;;;;;;;;10497533;28;20074;-81
2021/10/04 22:52:17;;;;;;;10.75;4.40;;;;;;;;;;10484394;28;20031;-81
2021/10/04 22:57:17;;;;;;;15.27;4.50;;;;;;;;;;10496813;28;20021;-81
2021/10/04 23:02:17;;;;;;;16.75;5.60;;;;;;;;;;10498053;28;20453;-81
2021/10/04 23:07:18;;;;;;;13.50;4.83;;;;;;;;;;10497340;28;20115;-80
2021/10/04 23:12:18;;;;;;;7.93;4.17;;;;;;;;;;10485021;28;20036;-80
2021/10/04 23:17:20;;;;;;;7.47;4.60;;;;;;;;;;10496316;28;20458;-81
2021/10/04 23:22:20;;;;;;;12.90;4.50;;;;;;;;;;10497387;28;20111;-81
2021/10/04 23:27:21;;;;;;;12.10;4.60;;;;;;;;;;10497597;28;20031;-80
2021/10/04 23:32:21;;;;;;;8.18;4.78;;;;;;;;;;10497161;28;20528;-81
2021/10/04 23:37:21;;;;;;;6.67;4.00;;;;;;;;;;10497303;28;20025;-81
2021/10/04 23:42:22;;;;;;;12.90;4.57;;;;;;;;;;10497554;28;20451;-81
2021/10/04 23:47:22;;;;;;;9.07;4.55;;;;;;;;;;10497500;28;20028;-80
2021/10/04 23:52:23;;;;;;;8.97;4.23;;;;;;;;;;10497228;28;20119;-80
2021/10/04 23:57:23;;;;;;;11.10;4.43;;;;;;;;;;10497083;28;20480;-80
